createdAt,value
2023-01-07T00:00:09.539Z,99592.53
2023-01-07T00:02:40.056Z,99586.53
2023-01-07T00:05:08.687Z,99579.63
2023-01-07T00:07:36.731Z,99547.50
2023-01-07T00:10:05.500Z,99549.28
2023-01-07T00:12:33.801Z,99594.06
2023-01-07T00:15:02.723Z,99599.63
2023-01-07T00:17:31.185Z,99583.41
2023-01-07T00:19:59.769Z,99598.81
2023-01-07T00:22:28.013Z,99602.09
2023-01-07T00:24:56.611Z,99562.91
2023-01-07T00:27:25.576Z,99597.59
2023-01-07T00:29:54.426Z,99600.22
2023-01-07T00:32:42.605Z,99601.44
2023-01-07T00:35:23.243Z,99586.22
2023-01-07T00:37:54.331Z,99611.72
2023-01-07T00:40:23.296Z,99630.31
2023-01-07T00:42:54.515Z,99578.63
2023-01-07T00:45:23.856Z,99584.78
2023-01-07T00:47:53.693Z,99641.66
2023-01-07T00:50:27.894Z,99630.75
2023-01-07T00:52:57.210Z,99640.78
2023-01-07T00:55:26.851Z,99637.53
2023-01-07T00:57:56.899Z,99640.88
2023-01-07T01:00:27.115Z,99643.94
2023-01-07T01:02:55.391Z,99643.94
2023-01-07T01:05:23.477Z,99603.28
2023-01-07T01:07:52.143Z,99605.72
2023-01-07T01:10:21.417Z,99635.03
2023-01-07T01:12:50.177Z,99636.09
2023-01-07T01:15:18.148Z,99604.97
2023-01-07T01:17:46.312Z,99603.19
2023-01-07T01:20:16.191Z,99597.28
2023-01-07T01:22:45.055Z,99610.28
2023-01-07T01:25:13.912Z,99638.84
2023-01-07T01:27:42.174Z,99661.75
2023-01-07T01:30:11.385Z,99623.66
2023-01-07T01:32:41.185Z,99665.16
2023-01-07T01:35:14.550Z,99669.63
2023-01-07T01:37:42.861Z,99616.03
2023-01-07T01:40:12.584Z,99646.56
2023-01-07T01:42:41.469Z,99674.72
2023-01-07T01:45:13.648Z,99690.94
2023-01-07T01:47:44.943Z,99684.84
2023-01-07T01:50:39.761Z,99651.53
2023-01-07T01:53:22.739Z,99702.53
2023-01-07T01:55:59.328Z,99703.22
2023-01-07T01:58:55.472Z,99711.25
2023-01-07T02:01:24.994Z,99709.56
2023-01-07T02:03:53.904Z,99707.78
2023-01-07T02:06:26.709Z,99668.88
2023-01-07T02:08:56.090Z,99721.06
2023-01-07T02:11:45.597Z,99667.34
2023-01-07T02:14:28.427Z,99711.06
2023-01-07T02:17:16.337Z,99682.59
2023-01-07T02:20:12.243Z,99710.81
2023-01-07T02:23:35.119Z,99708.69
2023-01-07T02:26:50.091Z,99704.69
2023-01-07T02:29:51.757Z,99702.66
2023-01-07T02:32:49.871Z,99677.63
2023-01-07T02:35:30.145Z,99691.47
2023-01-07T02:38:27.419Z,99706.00
2023-01-07T02:41:24.206Z,99694.56
2023-01-07T02:44:11.998Z,99709.31
2023-01-07T02:47:05.042Z,99696.00
2023-01-07T02:49:34.392Z,99691.66
2023-01-07T02:52:28.061Z,99560.81
2023-01-07T02:55:28.199Z,99703.88
2023-01-07T02:58:05.191Z,99703.00
2023-01-07T03:00:58.954Z,99708.63
2023-01-07T03:04:10.137Z,99713.38
2023-01-07T03:06:54.497Z,99729.19
2023-01-07T03:09:58.386Z,99718.22
2023-01-07T03:13:03.852Z,99720.41
2023-01-07T03:15:43.430Z,99726.50
2023-01-07T03:18:26.462Z,99742.91
2023-01-07T03:21:03.502Z,99737.22
2023-01-07T03:23:31.826Z,99740.53
2023-01-07T03:26:05.136Z,99722.50
2023-01-07T03:28:40.732Z,99733.72
2023-01-07T03:31:15.713Z,99733.63
2023-01-07T03:34:05.855Z,99741.06
2023-01-07T03:36:44.858Z,99715.72
2023-01-07T03:39:15.446Z,99707.66
2023-01-07T03:42:02.642Z,99683.88
2023-01-07T03:44:30.839Z,99726.25
2023-01-07T03:46:58.869Z,99718.06
2023-01-07T03:49:27.005Z,99731.09
2023-01-07T03:51:55.296Z,99677.47
2023-01-07T03:54:24.344Z,99716.63
2023-01-07T03:56:53.108Z,99714.56
2023-01-07T03:59:21.225Z,99719.81
2023-01-07T04:01:49.287Z,99724.91
2023-01-07T04:04:17.637Z,99688.22
2023-01-07T04:06:46.651Z,99725.50
2023-01-07T04:09:15.321Z,99742.78
2023-01-07T04:11:43.933Z,99737.69
2023-01-07T04:14:12.733Z,99716.22
2023-01-07T04:16:40.755Z,99713.50
2023-01-07T04:19:09.269Z,99710.97
2023-01-07T04:21:37.394Z,99748.19
2023-01-07T04:24:07.277Z,99715.97
2023-01-07T04:26:36.390Z,99739.41
2023-01-07T04:29:04.506Z,99731.44
2023-01-07T04:31:33.678Z,99774.38
2023-01-07T04:34:01.921Z,99781.34
2023-01-07T04:36:29.966Z,99741.03
2023-01-07T04:38:58.409Z,99791.56
2023-01-07T04:41:27.131Z,99779.53
2023-01-07T04:43:55.785Z,99782.94
2023-01-07T04:46:25.338Z,99808.38
2023-01-07T04:48:54.026Z,99762.53
2023-01-07T04:51:23.013Z,99805.66
2023-01-07T04:53:51.899Z,99786.66
2023-01-07T04:56:20.612Z,99792.28
2023-01-07T04:58:50.917Z,99762.00
2023-01-07T05:01:19.725Z,99745.97
2023-01-07T05:03:50.147Z,99764.47
2023-01-07T05:06:19.079Z,99800.56
2023-01-07T05:08:47.783Z,99767.03
2023-01-07T05:11:21.626Z,99802.09
2023-01-07T05:13:52.640Z,99813.34
2023-01-07T05:16:23.386Z,99815.78
2023-01-07T05:18:54.316Z,99768.03
2023-01-07T05:21:22.571Z,99824.78
2023-01-07T05:23:50.822Z,99829.88
2023-01-07T05:26:18.816Z,99818.03
2023-01-07T05:28:46.828Z,99835.03
2023-01-07T05:31:15.345Z,99837.75
2023-01-07T05:33:44.063Z,99843.16
2023-01-07T05:36:13.007Z,99847.31
2023-01-07T05:38:41.491Z,99855.97
2023-01-07T05:41:12.225Z,99844.41
2023-01-07T05:43:40.390Z,99851.28
2023-01-07T05:46:08.797Z,99816.41
2023-01-07T05:48:37.030Z,99855.34
2023-01-07T05:51:05.435Z,99854.94
2023-01-07T05:53:33.939Z,99816.13
2023-01-07T05:56:02.017Z,99848.28
2023-01-07T05:58:29.945Z,99857.03
2023-01-07T06:00:58.140Z,99856.16
2023-01-07T06:03:26.252Z,99860.31
2023-01-07T06:05:54.173Z,99830.78
2023-01-07T06:08:22.544Z,99860.50
2023-01-07T06:10:50.666Z,99876.38
2023-01-07T06:13:19.167Z,99882.91
2023-01-07T06:15:47.416Z,99891.97
2023-01-07T06:18:15.955Z,99843.47
2023-01-07T06:20:43.948Z,99888.97
2023-01-07T06:23:12.251Z,99853.69
2023-01-07T06:25:40.568Z,99897.06
2023-01-07T06:28:08.835Z,99868.28
2023-01-07T06:30:36.846Z,99849.66
2023-01-07T06:33:05.630Z,99909.09
2023-01-07T06:35:33.978Z,99908.13
2023-01-07T06:38:02.021Z,99907.22
2023-01-07T06:40:30.238Z,99914.84
2023-01-07T06:42:58.330Z,99905.78
2023-01-07T06:45:26.303Z,99926.28
2023-01-07T06:47:57.490Z,99894.25
2023-01-07T06:50:25.859Z,99943.81
2023-01-07T06:52:54.228Z,99903.75
2023-01-07T06:55:24.124Z,99900.56
2023-01-07T06:57:51.995Z,99950.09
2023-01-07T07:00:20.132Z,99952.91
2023-01-07T07:02:48.100Z,99904.97
2023-01-07T07:05:16.663Z,99940.03
2023-01-07T07:07:44.893Z,99950.28
2023-01-07T07:10:14.351Z,99906.16
2023-01-07T07:12:42.586Z,99952.59
2023-01-07T07:15:11.448Z,99918.19
2023-01-07T07:17:39.418Z,99957.38
2023-01-07T07:20:08.405Z,99968.56
2023-01-07T07:22:36.669Z,99937.41
2023-01-07T07:25:05.926Z,99972.41
2023-01-07T07:27:34.572Z,99960.03
2023-01-07T07:30:03.833Z,99970.03
2023-01-07T07:32:31.764Z,99949.41
2023-01-07T07:35:00.291Z,99981.13
2023-01-07T07:37:28.425Z,99988.69
2023-01-07T07:39:56.605Z,99980.44
2023-01-07T07:42:24.944Z,99944.69
2023-01-07T07:44:53.147Z,99949.50
2023-01-07T07:47:21.544Z,99983.22
2023-01-07T07:49:51.276Z,99991.03
2023-01-07T07:52:19.555Z,99995.00
2023-01-07T07:54:47.651Z,99943.91
2023-01-07T07:57:16.341Z,99992.00
2023-01-07T07:59:44.688Z,99968.13
2023-01-07T08:02:16.629Z,99985.38
2023-01-07T08:04:45.613Z,99946.53
2023-01-07T08:07:14.150Z,99968.09
2023-01-07T08:10:01.176Z,99967.56
2023-01-07T08:12:29.308Z,99965.53
2023-01-07T08:14:57.312Z,99967.78
2023-01-07T08:17:26.241Z,99971.06
2023-01-07T08:19:54.319Z,99974.28
2023-01-07T08:22:22.333Z,99967.16
2023-01-07T08:24:50.648Z,99930.66
2023-01-07T08:27:19.248Z,99968.84
2023-01-07T08:29:48.355Z,99981.31
2023-01-07T08:32:16.955Z,99985.03
2023-01-07T08:34:44.974Z,99976.56
2023-01-07T08:37:14.478Z,99983.06
2023-01-07T08:39:42.698Z,99987.03
2023-01-07T08:42:11.275Z,99973.56
2023-01-07T08:44:39.648Z,99984.78
2023-01-07T08:47:08.831Z,99987.22
2023-01-07T08:49:37.106Z,99999.94
2023-01-07T08:52:05.847Z,100001.63
2023-01-07T08:54:33.952Z,99992.50
2023-01-07T08:57:02.716Z,99996.81
2023-01-07T08:59:32.044Z,99996.56
2023-01-07T09:02:01.412Z,100001.81
2023-01-07T09:04:30.354Z,99965.72
2023-01-07T09:06:58.413Z,99999.94
2023-01-07T09:09:27.280Z,99998.72
2023-01-07T09:11:55.600Z,99997.69
2023-01-07T09:14:24.584Z,99945.97
2023-01-07T09:16:53.016Z,99950.75
2023-01-07T09:19:21.059Z,100003.88
2023-01-07T09:21:51.499Z,99997.22
2023-01-07T09:24:20.263Z,99998.63
2023-01-07T09:26:48.583Z,99995.22
2023-01-07T09:29:17.036Z,99988.06
2023-01-07T09:31:52.778Z,99981.19
2023-01-07T09:34:23.517Z,99950.44
2023-01-07T09:36:52.888Z,99992.38
2023-01-07T09:39:21.555Z,99996.63
2023-01-07T09:42:33.875Z,99995.56
2023-01-07T09:45:28.030Z,100002.16
2023-01-07T09:48:00.176Z,99935.81
2023-01-07T09:50:52.769Z,99969.97
2023-01-07T09:53:33.457Z,99868.03
2023-01-07T09:56:12.370Z,99954.28
2023-01-07T09:58:44.852Z,99943.22
2023-01-07T10:01:37.242Z,99988.47
2023-01-07T10:04:19.167Z,99985.88
2023-01-07T10:08:29.475Z,99981.69
2023-01-07T10:11:11.396Z,99963.00
2023-01-07T10:14:19.165Z,99975.38
2023-01-07T10:17:24.686Z,99970.09
2023-01-07T10:20:21.166Z,99966.00
2023-01-07T10:22:56.905Z,99971.91
2023-01-07T10:25:32.575Z,99932.31
2023-01-07T10:28:12.705Z,99977.75
2023-01-07T10:30:45.774Z,99920.19
2023-01-07T10:33:31.574Z,99952.50
2023-01-07T10:36:40.384Z,99928.63
2023-01-07T10:39:43.756Z,99967.50
2023-01-07T10:42:23.762Z,99959.38
2023-01-07T10:45:38.443Z,99955.56
2023-01-07T10:48:25.078Z,99962.31
2023-01-07T10:51:54.511Z,99955.03
2023-01-07T10:54:34.906Z,99956.75
2023-01-07T10:57:29.206Z,99952.94
2023-01-07T11:00:03.226Z,99943.53
2023-01-07T11:02:32.169Z,99945.75
2023-01-07T11:05:01.870Z,99899.50
2023-01-07T11:07:54.488Z,99946.81
2023-01-07T11:10:34.548Z,99933.72
2023-01-07T11:13:15.476Z,99930.75
2023-01-07T11:15:56.399Z,99926.97
2023-01-07T11:18:53.971Z,99936.38
2023-01-07T11:21:44.165Z,99878.50
2023-01-07T11:24:30.188Z,99927.72
2023-01-07T11:27:11.382Z,99919.56
2023-01-07T11:30:00.884Z,99875.66
2023-01-07T11:32:38.746Z,99872.31
2023-01-07T11:35:07.903Z,99923.28
2023-01-07T11:37:40.674Z,99916.75
2023-01-07T11:40:15.536Z,99917.88
2023-01-07T11:43:22.491Z,99919.72
2023-01-07T11:46:21.430Z,99910.00
2023-01-07T11:49:03.311Z,99910.56
2023-01-07T11:51:41.883Z,99891.31
2023-01-07T11:54:25.952Z,99899.53
2023-01-07T11:57:21.333Z,99898.34
2023-01-07T12:00:11.662Z,99894.41
2023-01-07T12:02:40.767Z,99895.06
2023-01-07T12:05:26.970Z,99856.97
2023-01-07T12:07:58.698Z,99879.81
2023-01-07T12:10:34.764Z,99899.56
2023-01-07T12:13:16.159Z,99854.88
2023-01-07T12:15:58.496Z,99881.28
2023-01-07T12:19:18.531Z,99877.06
2023-01-07T12:22:12.811Z,99824.06
2023-01-07T12:25:02.296Z,99871.00
2023-01-07T12:28:13.166Z,99876.53
2023-01-07T12:31:08.844Z,99883.22
2023-01-07T12:33:58.144Z,99880.28
2023-01-07T12:37:02.821Z,99872.94
2023-01-07T12:39:36.671Z,99882.22
2023-01-07T12:45:04.216Z,99831.03
2023-01-07T12:47:42.491Z,99840.09
2023-01-07T12:50:24.766Z,99864.22
2023-01-07T12:53:11.939Z,99865.38
2023-01-07T12:56:02.032Z,99854.44
2023-01-07T12:58:48.716Z,99861.06
2023-01-07T13:01:46.882Z,99854.06
2023-01-07T13:05:06.533Z,99851.66
2023-01-07T13:08:11.041Z,99855.44
2023-01-07T13:10:52.116Z,99848.31
2023-01-07T13:13:40.655Z,99847.03
2023-01-07T13:16:14.149Z,99838.28
2023-01-07T13:18:43.009Z,99844.50
2023-01-07T13:21:17.349Z,99825.06
2023-01-07T13:24:00.438Z,99839.09
2023-01-07T13:27:03.124Z,99839.69
2023-01-07T13:30:31.858Z,99803.88
2023-01-07T13:33:44.588Z,99836.22
2023-01-07T13:36:28.481Z,99849.06
2023-01-07T13:39:37.532Z,99864.34
2023-01-07T13:42:52.357Z,99864.38
2023-01-07T13:45:34.326Z,99819.75
2023-01-07T13:48:05.719Z,99845.63
2023-01-07T13:50:45.952Z,99846.38
2023-01-07T13:53:18.362Z,99818.41
2023-01-07T13:55:49.259Z,99841.44
2023-01-07T13:58:43.911Z,99795.66
2023-01-07T14:01:35.090Z,99833.53
2023-01-07T14:04:07.338Z,99832.06
2023-01-07T14:06:51.496Z,99790.50
2023-01-07T14:09:32.944Z,99820.78
2023-01-07T14:13:10.201Z,99837.63
2023-01-07T14:16:02.437Z,99830.44
2023-01-07T14:18:33.519Z,99805.09
2023-01-07T14:21:45.394Z,99799.59
2023-01-07T14:24:53.845Z,99843.59
2023-01-07T14:27:35.055Z,99851.78
2023-01-07T14:30:51.383Z,99842.09
2023-01-07T14:33:22.510Z,99853.28
2023-01-07T14:36:07.068Z,99813.50
2023-01-07T14:38:35.280Z,99836.94
2023-01-07T14:41:13.449Z,99851.34
2023-01-07T14:43:47.711Z,99845.66
2023-01-07T14:46:24.901Z,99859.22
2023-01-07T14:49:04.770Z,99855.00
2023-01-07T14:52:11.235Z,99854.56
2023-01-07T14:55:14.200Z,99858.38
2023-01-07T14:58:31.239Z,99827.88
2023-01-07T15:01:44.997Z,99850.69
2023-01-07T15:04:52.063Z,99858.69
2023-01-07T15:07:27.948Z,99809.31
2023-01-07T15:10:33.537Z,99861.34
2023-01-07T15:13:23.181Z,99861.53
2023-01-07T15:16:04.909Z,99878.91
2023-01-07T15:18:45.476Z,99859.13
2023-01-07T15:22:03.089Z,99850.91
2023-01-07T15:25:03.022Z,99873.19
2023-01-07T15:27:34.367Z,99886.56
2023-01-07T15:30:30.939Z,99871.22
2023-01-07T15:33:25.095Z,99857.16
2023-01-07T15:35:54.055Z,99887.50
2023-01-07T15:38:38.555Z,99878.31
2023-01-07T15:41:07.327Z,99866.38
2023-01-07T15:43:40.180Z,99875.84
2023-01-07T15:46:09.053Z,99848.78
2023-01-07T15:48:38.548Z,99856.69
2023-01-07T15:51:17.971Z,99879.69
2023-01-07T15:53:57.524Z,99884.13
2023-01-07T15:56:26.276Z,99847.66
2023-01-07T15:58:54.563Z,99874.06
2023-01-07T16:01:25.132Z,99885.59
2023-01-07T16:03:57.297Z,99838.16
2023-01-07T16:06:32.264Z,99892.28
2023-01-07T16:09:05.902Z,99851.44
2023-01-07T16:11:34.591Z,99873.41
2023-01-07T16:14:04.997Z,99884.38
2023-01-07T16:16:34.317Z,99894.81
2023-01-07T16:19:04.245Z,99857.41
2023-01-07T16:21:40.169Z,99888.72
2023-01-07T16:24:15.377Z,99872.94
2023-01-07T16:26:53.341Z,99899.16
2023-01-07T16:29:32.007Z,99859.50
2023-01-07T16:32:01.731Z,99896.72
2023-01-07T16:34:30.750Z,99902.44
2023-01-07T16:37:01.974Z,99917.09
2023-01-07T16:39:37.288Z,99865.91
2023-01-07T16:42:23.676Z,99901.22
2023-01-07T16:44:55.444Z,99910.91
2023-01-07T16:47:25.913Z,99893.50
2023-01-07T16:50:17.988Z,99908.94
2023-01-07T16:53:30.577Z,99905.13
2023-01-07T16:56:15.604Z,99902.44
2023-01-07T16:58:55.990Z,99829.72
2023-01-07T17:01:36.357Z,99863.63
2023-01-07T17:04:16.435Z,99917.19
2023-01-07T17:06:46.123Z,99861.66
2023-01-07T17:09:37.902Z,99899.50
2023-01-07T17:12:06.897Z,99908.16
2023-01-07T17:14:38.943Z,99908.44
2023-01-07T17:17:39.534Z,99898.75
2023-01-07T17:20:15.464Z,99899.81
2023-01-07T17:22:43.977Z,99860.44
2023-01-07T17:25:28.942Z,99902.00
2023-01-07T17:28:10.207Z,99850.47
2023-01-07T17:30:40.736Z,99896.72
2023-01-07T17:33:17.676Z,99897.66
2023-01-07T17:35:48.194Z,99887.22
2023-01-07T17:38:18.509Z,99775.88
2023-01-07T17:40:48.364Z,99900.81
2023-01-07T17:43:39.805Z,99857.59
2023-01-07T17:46:13.323Z,99894.44
2023-01-07T17:48:42.679Z,99894.44
2023-01-07T17:51:12.156Z,99904.56
2023-01-07T17:53:46.608Z,99910.28
2023-01-07T17:56:16.464Z,99916.41
2023-01-07T17:58:45.339Z,99902.38
2023-01-07T18:01:20.941Z,99906.34
2023-01-07T18:03:50.928Z,99897.13
2023-01-07T18:06:25.823Z,99784.16
2023-01-07T18:08:55.063Z,99893.66
2023-01-07T18:11:46.276Z,99873.53
2023-01-07T18:14:16.730Z,99900.81
2023-01-07T18:16:45.281Z,99881.06
2023-01-07T18:19:15.090Z,99889.72
2023-01-07T18:21:44.214Z,99895.81
2023-01-07T18:24:18.238Z,99848.19
2023-01-07T18:26:48.677Z,99899.75
2023-01-07T18:29:18.982Z,99887.53
2023-01-07T18:31:47.530Z,99889.97
2023-01-07T18:34:16.580Z,99874.69
2023-01-07T18:36:45.240Z,99847.72
2023-01-07T18:39:20.793Z,99888.41
2023-01-07T18:41:50.800Z,99892.16
2023-01-07T18:44:23.780Z,99839.38
2023-01-07T18:46:52.799Z,99889.94
2023-01-07T18:49:21.443Z,99871.22
2023-01-07T18:51:50.030Z,99862.97
2023-01-07T18:54:18.934Z,99890.84
2023-01-07T18:56:47.417Z,99888.97
2023-01-07T18:59:16.087Z,99885.78
2023-01-07T19:01:46.397Z,99887.66
2023-01-07T19:04:15.611Z,99860.88
2023-01-07T19:06:44.921Z,99885.22
2023-01-07T19:09:14.167Z,99867.25
2023-01-07T19:11:44.068Z,99873.94
2023-01-07T19:14:12.664Z,99877.00
2023-01-07T19:16:41.572Z,99877.13
2023-01-07T19:19:11.519Z,99879.00
2023-01-07T19:21:40.859Z,99843.69
2023-01-07T19:24:10.334Z,99833.34
2023-01-07T19:26:38.745Z,99881.72
2023-01-07T19:29:13.201Z,99891.50
2023-01-07T19:31:46.194Z,99881.28
2023-01-07T19:34:15.488Z,99881.38
2023-01-07T19:36:45.378Z,99886.16
2023-01-07T19:39:22.709Z,99887.47
2023-01-07T19:41:53.772Z,99892.94
2023-01-07T19:44:23.360Z,99891.63
2023-01-07T19:46:56.020Z,99892.94
2023-01-07T19:49:25.035Z,99892.28
2023-01-07T19:51:56.429Z,99800.31
2023-01-07T19:54:25.278Z,99873.78
2023-01-07T19:56:55.068Z,99881.50
2023-01-07T19:59:24.444Z,99882.34
2023-01-07T20:01:54.250Z,99878.59
2023-01-07T20:04:22.878Z,99881.03
2023-01-07T20:06:50.987Z,99839.00
2023-01-07T20:09:20.832Z,99892.38
2023-01-07T20:11:50.959Z,99885.72
2023-01-07T20:14:20.066Z,99841.16
2023-01-07T20:16:48.877Z,99833.53
2023-01-07T20:19:17.407Z,99875.00
2023-01-07T20:21:47.080Z,99850.75
2023-01-07T20:24:15.785Z,99831.66
2023-01-07T20:26:44.767Z,99873.09
2023-01-07T20:29:13.467Z,99872.34
2023-01-07T20:31:42.082Z,99865.94
2023-01-07T20:34:13.387Z,99849.59
2023-01-07T20:36:42.565Z,99860.13
2023-01-07T20:39:12.127Z,99839.72
2023-01-07T20:41:40.558Z,99815.88
2023-01-07T20:44:11.649Z,99861.63
2023-01-07T20:46:40.869Z,99867.72
2023-01-07T20:49:10.310Z,99866.81
2023-01-07T20:51:39.207Z,99878.19
2023-01-07T20:54:09.200Z,99875.59
2023-01-07T20:56:38.292Z,99828.06
2023-01-07T20:59:06.743Z,99883.50
2023-01-07T21:01:35.474Z,99878.34
2023-01-07T21:04:03.972Z,99825.72
2023-01-07T21:06:32.905Z,99873.94
2023-01-07T21:09:02.893Z,99872.41
2023-01-07T21:11:32.327Z,99861.41
2023-01-07T21:14:01.233Z,99866.78
2023-01-07T21:16:29.972Z,99872.78
2023-01-07T21:18:58.849Z,99878.97
2023-01-07T21:21:28.356Z,99870.06
2023-01-07T21:23:57.319Z,99868.38
2023-01-07T21:26:25.989Z,99870.41
2023-01-07T21:28:56.356Z,99833.47
2023-01-07T21:31:27.954Z,99865.72
2023-01-07T21:33:58.734Z,99878.75
2023-01-07T21:36:28.958Z,99872.84
2023-01-07T21:39:01.417Z,99749.06
2023-01-07T21:41:30.687Z,99871.13
2023-01-07T21:43:59.285Z,99882.97
2023-01-07T21:46:29.662Z,99877.06
2023-01-07T21:48:58.210Z,99841.53
2023-01-07T21:51:28.322Z,99885.44
2023-01-07T21:53:59.193Z,99819.53
2023-01-07T21:56:33.360Z,99903.38
2023-01-07T21:59:02.506Z,99879.63
2023-01-07T22:01:31.252Z,99882.00
2023-01-07T22:04:00.386Z,99870.59
2023-01-07T22:06:32.644Z,99883.13
2023-01-07T22:09:05.387Z,99870.16
2023-01-07T22:11:38.976Z,99878.72
2023-01-07T22:14:12.921Z,99868.38
2023-01-07T22:16:42.596Z,99862.81
2023-01-07T22:19:12.880Z,99882.09
2023-01-07T22:21:44.670Z,99880.97
2023-01-07T22:24:14.821Z,99848.81
2023-01-07T22:26:44.399Z,99880.13
2023-01-07T22:29:13.406Z,99883.44
2023-01-07T22:31:42.301Z,99877.13
2023-01-07T22:34:11.159Z,99862.56
2023-01-07T22:36:49.601Z,99874.22
2023-01-07T22:39:37.593Z,99826.56
2023-01-07T22:42:31.615Z,99865.13
2023-01-07T22:45:08.933Z,99860.16
2023-01-07T22:47:42.397Z,99815.03
2023-01-07T22:50:11.460Z,99837.13
2023-01-07T22:52:40.908Z,99821.06
2023-01-07T22:55:12.606Z,99825.28
2023-01-07T22:57:42.207Z,99821.69
2023-01-07T23:00:38.011Z,99848.69
2023-01-07T23:03:06.715Z,99764.09
2023-01-07T23:05:36.328Z,99843.81
2023-01-07T23:08:06.766Z,99845.78
2023-01-07T23:10:37.768Z,99836.47
2023-01-07T23:13:07.865Z,99844.00
2023-01-07T23:15:38.549Z,99832.44
2023-01-07T23:18:09.987Z,99836.84
2023-01-07T23:20:43.741Z,99831.56
2023-01-07T23:23:13.490Z,99833.38
2023-01-07T23:25:50.490Z,99831.66
2023-01-07T23:28:20.283Z,99816.09
2023-01-07T23:30:48.573Z,99825.09
2023-01-07T23:33:16.699Z,99782.72
2023-01-07T23:35:45.177Z,99815.41
2023-01-07T23:38:13.360Z,99784.25
2023-01-07T23:40:41.757Z,99803.47
2023-01-07T23:43:10.909Z,99789.03
2023-01-07T23:45:38.995Z,99792.41
2023-01-07T23:48:07.115Z,99778.88
2023-01-07T23:50:35.627Z,99762.91
2023-01-07T23:53:04.150Z,99776.53
2023-01-07T23:55:32.334Z,99743.09
2023-01-07T23:58:00.955Z,99744.00
